createdAt,value
2022-08-10T00:00:54.618Z,16.40
2022-08-10T00:05:54.998Z,16.10
2022-08-10T00:10:54.857Z,16.10
2022-08-10T00:15:54.837Z,16.10
2022-08-10T00:20:52.960Z,15.90
2022-08-10T00:25:50.310Z,15.90
2022-08-10T00:30:47.606Z,15.80
2022-08-10T00:35:44.955Z,15.80
2022-08-10T00:40:42.246Z,15.90
2022-08-10T00:45:39.904Z,15.90
2022-08-10T00:50:38.074Z,15.80
2022-08-10T00:57:14.983Z,15.90
2022-08-10T01:00:53.847Z,15.90
2022-08-10T01:06:15.325Z,15.60
2022-08-10T01:12:28.613Z,15.40
2022-08-10T01:16:50.984Z,15.30
2022-08-10T01:22:20.295Z,15.40
2022-08-10T01:27:38.266Z,15.50
2022-08-10T01:32:54.455Z,15.30
2022-08-10T01:38:34.766Z,15.30
2022-08-10T01:43:37.401Z,15.30
2022-08-10T01:48:46.049Z,15.20
2022-08-10T01:53:56.496Z,15.20
2022-08-10T01:59:01.622Z,15.00
2022-08-10T02:04:06.008Z,15.00
2022-08-10T02:09:07.102Z,15.10
2022-08-10T02:14:06.433Z,15.20
2022-08-10T02:19:05.537Z,15.10
2022-08-10T02:24:04.394Z,14.80
2022-08-10T02:29:02.548Z,14.80
2022-08-10T02:34:00.204Z,14.60
2022-08-10T02:39:01.458Z,14.60
2022-08-10T02:45:24.429Z,14.70
2022-08-10T02:49:31.759Z,14.70
2022-08-10T02:54:35.854Z,14.70
2022-08-10T02:59:42.373Z,14.40
2022-08-10T03:04:54.602Z,14.30
2022-08-10T03:09:56.385Z,14.20
2022-08-10T03:14:55.219Z,14.50
2022-08-10T03:20:34.223Z,14.50
2022-08-10T03:25:13.598Z,14.30
2022-08-10T03:30:32.404Z,14.60
2022-08-10T03:35:30.078Z,14.50
2022-08-10T03:40:46.337Z,14.10
2022-08-10T03:45:54.269Z,14.20
2022-08-10T03:50:55.778Z,14.10
2022-08-10T03:56:28.212Z,14.20
2022-08-10T04:01:11.996Z,14.10
2022-08-10T04:06:11.978Z,14.00
2022-08-10T04:11:12.954Z,14.10
2022-08-10T04:16:10.209Z,14.00
2022-08-10T04:21:19.239Z,13.80
2022-08-10T04:26:16.864Z,13.90
2022-08-10T04:31:17.194Z,14.20
2022-08-10T04:36:17.179Z,14.20
2022-08-10T04:41:14.874Z,14.40
2022-08-10T04:46:42.611Z,14.60
2022-08-10T04:51:29.364Z,14.80
2022-08-10T04:56:31.698Z,15.00
2022-08-10T05:02:28.218Z,15.10
2022-08-10T05:06:46.997Z,15.20
2022-08-10T05:11:44.339Z,15.30
2022-08-10T05:16:41.704Z,15.60
2022-08-10T05:22:02.449Z,15.70
2022-08-10T05:27:09.341Z,16.10
2022-08-10T05:32:07.219Z,16.20
2022-08-10T05:37:06.394Z,16.30
2022-08-10T05:42:27.675Z,16.50
2022-08-10T05:47:25.524Z,16.80
2022-08-10T05:52:26.572Z,17.00
2022-08-10T05:57:23.923Z,17.50
2022-08-10T06:02:31.156Z,20.30
2022-08-10T06:07:31.968Z,23.00
2022-08-10T06:12:53.426Z,24.70
2022-08-10T06:17:47.439Z,26.50
2022-08-10T06:23:01.698Z,27.30
2022-08-10T06:28:01.110Z,29.10
2022-08-10T06:32:59.992Z,28.60
2022-08-10T06:37:59.778Z,28.50
2022-08-10T06:43:00.100Z,29.70
2022-08-10T06:48:05.326Z,28.30
2022-08-10T06:53:04.032Z,29.30
2022-08-10T06:58:02.251Z,29.40
2022-08-10T07:03:09.549Z,29.80
2022-08-10T07:08:09.209Z,28.70
2022-08-10T07:13:07.141Z,28.00
2022-08-10T07:18:06.411Z,26.20
2022-08-10T07:23:57.202Z,25.40
2022-08-10T07:28:22.891Z,29.00
2022-08-10T07:33:22.684Z,29.50
2022-08-10T07:38:30.622Z,30.20
2022-08-10T07:43:32.285Z,30.40
2022-08-10T07:48:34.213Z,30.80
2022-08-10T07:53:37.400Z,31.10
2022-08-10T07:58:46.419Z,30.80
2022-08-10T08:04:05.026Z,31.10
2022-08-10T08:09:09.325Z,32.20
2022-08-10T08:14:09.098Z,33.10
2022-08-10T08:19:27.811Z,32.10
2022-08-10T08:24:32.842Z,31.50
2022-08-10T08:29:35.431Z,31.70
2022-08-10T08:34:34.288Z,31.50
2022-08-10T08:39:33.658Z,32.10
2022-08-10T08:45:08.533Z,32.00
2022-08-10T08:50:14.785Z,31.80
2022-08-10T08:56:04.420Z,32.70
2022-08-10T09:01:40.435Z,32.10
2022-08-10T09:07:07.458Z,32.30
2022-08-10T09:12:34.041Z,31.90
2022-08-10T09:18:06.341Z,31.70
2022-08-10T09:23:06.742Z,31.50
2022-08-10T09:28:11.885Z,31.50
2022-08-10T09:36:28.042Z,31.70
2022-08-10T09:39:03.148Z,31.60
2022-08-10T09:44:19.146Z,31.60
2022-08-10T09:49:56.356Z,32.30
2022-08-10T09:55:06.784Z,31.80
2022-08-10T10:00:14.966Z,31.10
2022-08-10T10:05:18.426Z,31.90
2022-08-10T10:10:29.581Z,31.60
2022-08-10T10:15:34.248Z,31.20
2022-08-10T10:20:52.859Z,30.80
2022-08-10T10:26:45.855Z,30.80
2022-08-10T10:32:07.004Z,30.30
2022-08-10T10:37:07.377Z,29.80
2022-08-10T10:42:45.986Z,28.60
2022-08-10T10:47:52.903Z,27.90
2022-08-10T10:53:02.162Z,27.50
2022-08-10T10:58:20.065Z,27.30
2022-08-10T11:03:54.764Z,27.10
2022-08-10T11:09:00.179Z,27.00
2022-08-10T11:14:24.341Z,27.10
2022-08-10T11:20:02.362Z,27.00
2022-08-10T11:25:22.458Z,26.80
2022-08-10T11:30:27.428Z,26.60
2022-08-10T11:35:56.679Z,26.50
2022-08-10T11:41:12.713Z,26.60
2022-08-10T11:46:38.932Z,26.60
2022-08-10T11:51:41.565Z,26.60
2022-08-10T11:56:51.042Z,26.60
2022-08-10T12:01:51.062Z,26.60
2022-08-10T12:06:55.508Z,26.30
2022-08-10T12:11:54.434Z,26.20
2022-08-10T12:17:38.041Z,26.20
2022-08-10T12:22:57.582Z,26.30
2022-08-10T12:28:00.192Z,26.30
2022-08-10T12:33:05.018Z,26.30
2022-08-10T12:38:25.237Z,26.30
2022-08-10T12:44:07.338Z,26.30
2022-08-10T12:49:03.846Z,26.40
2022-08-10T12:54:17.598Z,26.30
2022-08-10T12:59:31.842Z,26.30
2022-08-10T13:04:35.755Z,26.40
2022-08-10T13:09:34.680Z,26.50
2022-08-10T13:14:58.826Z,26.40
2022-08-10T13:20:03.397Z,26.50
2022-08-10T13:25:07.439Z,26.50
2022-08-10T13:30:07.365Z,26.50
2022-08-10T13:35:12.535Z,26.40
2022-08-10T13:40:15.142Z,26.30
2022-08-10T13:45:26.016Z,26.40
2022-08-10T13:50:33.623Z,26.50
2022-08-10T13:55:48.734Z,26.50
2022-08-10T14:00:51.224Z,26.50
2022-08-10T14:05:56.569Z,26.40
2022-08-10T14:11:09.440Z,26.50
2022-08-10T14:16:11.180Z,26.60
2022-08-10T14:21:08.971Z,26.70
2022-08-10T14:26:09.209Z,26.60
2022-08-10T14:31:10.020Z,26.70
2022-08-10T14:36:21.251Z,26.60
2022-08-10T14:42:00.829Z,26.50
2022-08-10T14:46:51.611Z,26.50
2022-08-10T14:51:51.160Z,26.40
2022-08-10T14:56:50.294Z,26.40
2022-08-10T15:02:39.038Z,26.50
2022-08-10T15:07:23.529Z,26.30
2022-08-10T15:12:25.025Z,26.40
2022-08-10T15:17:35.141Z,26.40
2022-08-10T15:22:38.650Z,26.40
2022-08-10T15:27:53.380Z,26.30
2022-08-10T15:33:12.511Z,26.30
2022-08-10T15:38:12.000Z,26.40
2022-08-10T15:43:20.372Z,26.40
2022-08-10T15:48:24.450Z,26.30
2022-08-10T15:53:32.240Z,26.30
2022-08-10T15:59:07.870Z,26.20
2022-08-10T16:04:19.640Z,26.30
2022-08-10T16:10:24.577Z,26.30
2022-08-10T16:14:47.843Z,26.30
2022-08-10T16:19:52.533Z,26.30
2022-08-10T16:24:51.028Z,26.30
2022-08-10T16:29:56.019Z,26.30
2022-08-10T16:34:55.673Z,26.30
2022-08-10T16:40:01.084Z,26.20
2022-08-10T16:45:05.851Z,26.10
2022-08-10T16:50:07.060Z,26.10
2022-08-10T16:55:23.901Z,26.00
2022-08-10T17:00:23.551Z,25.90
2022-08-10T17:06:10.482Z,25.80
2022-08-10T17:10:57.273Z,25.60
2022-08-10T17:16:03.271Z,25.50
2022-08-10T17:21:06.642Z,25.40
2022-08-10T17:26:10.571Z,25.30
2022-08-10T17:31:55.134Z,25.20
2022-08-10T17:36:58.413Z,25.00
2022-08-10T17:41:56.468Z,24.90
2022-08-10T17:46:55.430Z,24.70
2022-08-10T17:51:58.172Z,24.60
2022-08-10T17:57:02.152Z,24.30
2022-08-10T18:02:15.717Z,24.20
2022-08-10T18:07:14.141Z,24.00
2022-08-10T18:12:18.285Z,23.80
2022-08-10T18:17:24.343Z,23.50
2022-08-10T18:22:22.912Z,23.30
2022-08-10T18:27:21.482Z,23.00
2022-08-10T18:32:23.473Z,22.70
2022-08-10T18:37:23.958Z,22.30
2022-08-10T18:42:39.401Z,22.10
2022-08-10T18:48:00.110Z,21.90
2022-08-10T18:53:01.969Z,21.80
2022-08-10T18:58:17.403Z,21.70
2022-08-10T19:04:13.306Z,21.60
2022-08-10T19:09:47.042Z,21.60
2022-08-10T19:15:09.499Z,21.50
2022-08-10T19:20:35.279Z,21.50
2022-08-10T19:26:43.301Z,21.20
2022-08-10T19:31:20.404Z,21.20
2022-08-10T19:36:37.999Z,21.20
2022-08-10T19:41:44.858Z,21.20
2022-08-10T19:46:49.269Z,21.00
2022-08-10T19:52:11.405Z,21.00
2022-08-10T19:57:15.525Z,20.80
2022-08-10T20:02:22.149Z,20.80
2022-08-10T20:07:29.447Z,20.80
2022-08-10T20:12:44.774Z,20.80
2022-08-10T20:17:56.297Z,20.70
2022-08-10T20:23:08.642Z,20.50
2022-08-10T20:28:13.370Z,20.30
2022-08-10T20:33:17.707Z,20.00
2022-08-10T20:38:33.197Z,19.90
2022-08-10T20:44:06.851Z,19.70
2022-08-10T20:49:38.870Z,19.60
2022-08-10T20:54:42.364Z,19.50
2022-08-10T21:00:04.957Z,19.30
2022-08-10T21:05:42.161Z,19.20
2022-08-10T21:10:59.129Z,19.20
2022-08-10T21:16:22.539Z,19.10
2022-08-10T21:21:59.016Z,19.00
2022-08-10T21:27:18.945Z,19.00
2022-08-10T21:32:41.297Z,18.90
2022-08-10T21:38:08.124Z,18.90
2022-08-10T21:43:48.747Z,18.80
2022-08-10T21:49:36.928Z,18.70
2022-08-10T22:01:17.700Z,18.70
2022-08-10T22:06:34.897Z,18.60
2022-08-10T22:11:58.208Z,18.50
2022-08-10T22:18:00.101Z,18.30
2022-08-10T22:23:03.345Z,18.30
2022-08-10T22:31:26.217Z,18.30
2022-08-10T22:31:29.177Z,18.70
2022-08-10T22:34:19.347Z,18.20
2022-08-10T22:40:05.875Z,18.00
2022-08-10T22:45:19.255Z,17.90
2022-08-10T22:50:23.746Z,17.90
2022-08-10T22:55:51.847Z,17.80
2022-08-10T23:01:13.667Z,17.60
2022-08-10T23:06:17.156Z,17.40
2022-08-10T23:11:22.987Z,17.10
2022-08-10T23:16:43.216Z,17.00
2022-08-10T23:22:09.448Z,16.90
2022-08-10T23:27:12.334Z,16.70
2022-08-10T23:32:10.748Z,16.40
2022-08-10T23:37:10.407Z,16.50
2022-08-10T23:42:10.755Z,16.40
2022-08-10T23:47:10.136Z,16.40
2022-08-10T23:52:19.066Z,16.40
2022-08-10T23:57:21.499Z,16.40
